Time;durP1;ratioP1;P1;durP2;ratioP2;P2;SDS_P1;SDS_P2;PMS_P1;PMS_P2;Temp;Humidity;BMP_temperature;BMP_pressure;BME280_temperature;BME280_humidity;BME280_pressure;Samples;Min_cycle;Max_cycle;Signal;HPM_P1;HPM_P2
2023/07/16 00:00:37;;;;;;;;;;;;;;;;;;5043161;28;19924;-70
2023/07/16 00:03:03;;;;;;;;;;;;;;;;;;5042715;28;19932;-70
2023/07/16 00:05:29;;;;;;;;;;;;;;;;;;5043123;28;19936;-69
2023/07/16 00:07:56;;;;;;;;;;;;;;;;;;5043472;28;19932;-69
2023/07/16 00:10:22;;;;;;;;;;;;;;;;;;5047235;28;20421;-69
2023/07/16 00:12:48;;;;;;;;;;;;;;;;;;5063443;28;20066;-69
2023/07/16 00:15:14;;;;;;;;;;;;;;;;;;5057894;28;20062;-69
2023/07/16 00:17:40;;;;;;;;;;;;;;;;;;5043674;28;19982;-69
2023/07/16 00:20:05;;;;;;;;;;;;;;;;;;5056602;28;19951;-70
2023/07/16 00:22:31;;;;;;;;;;;;;;;;;;5043364;28;19929;-67
2023/07/16 00:24:57;;;;;;;;;;;;;;;;;;5043283;28;19924;-71
2023/07/16 00:27:23;;;;;;;;;;;;;;;;;;5047372;28;19920;-71
2023/07/16 00:29:49;;;;;;;;;;;;;;;;;;5042704;28;19924;-69
2023/07/16 00:32:15;;;;;;;;;;;;;;;;;;5042624;28;19986;-69
2023/07/16 00:34:41;;;;;;;;;;;;;;;;;;5042320;28;20431;-70
2023/07/16 00:37:07;;;;;;;;;;;;;;;;;;5041754;28;19947;-69
2023/07/16 00:39:33;;;;;;;;;;;;;;;;;;5024998;28;19936;-69
2023/07/16 00:41:59;;;;;;;;;;;;;;;;;;5043608;28;19924;-70
2023/07/16 00:44:25;;;;;;;;;;;;;;;;;;5049047;28;19929;-70
2023/07/16 00:46:51;;;;;;;;;;;;;;;;;;5049719;28;19929;-70
2023/07/16 00:49:17;;;;;;;;;;;;;;;;;;5042858;28;19928;-70
2023/07/16 00:51:42;;;;;;;;;;;;;;;;;;5041873;28;19978;-70
2023/07/16 00:54:08;;;;;;;;;;;;;;;;;;5042603;28;19986;-70
2023/07/16 00:56:34;;;;;;;;;;;;;;;;;;5042474;28;20442;-70
2023/07/16 00:59:00;;;;;;;;;;;;;;;;;;5045518;28;19932;-70
2023/07/16 01:01:26;;;;;;;;;;;;;;;;;;5046272;28;20019;-70
2023/07/16 01:03:52;;;;;;;;;;;;;;;;;;5047087;28;20148;-70
2023/07/16 01:06:18;;;;;;;;;;;;;;;;;;5045420;28;19940;-71
2023/07/16 01:08:44;;;;;;;;;;;;;;;;;;5046204;28;19929;-71
2023/07/16 01:13:45;;;;;;;;;;;;;;;;;;5051211;28;20008;-60
2023/07/16 01:16:11;;;;;;;;;;;;;;;;;;5063852;28;20028;-60
2023/07/16 01:18:37;;;;;;;;;;;;;;;;;;5065175;28;19970;-60
2023/07/16 01:21:02;;;;;;;;;;;;;;;;;;5064416;28;19928;-60
2023/07/16 01:23:28;;;;;;;;;;;;;;;;;;5064904;28;19943;-60
2023/07/16 01:25:54;;;;;;;;;;;;;;;;;;5064165;28;19924;-60
2023/07/16 01:28:20;;;;;;;;;;;;;;;;;;5064911;28;20309;-60
2023/07/16 01:30:46;;;;;;;;;;;;;;;;;;5065719;28;19924;-60
2023/07/16 01:33:12;;;;;;;;;;;;;;;;;;5065822;28;19925;-60
2023/07/16 01:35:39;;;;;;;;;;;;;;;;;;5065677;28;20358;-60
2023/07/16 01:38:05;;;;;;;;;;;;;;;;;;5066061;28;19925;-61
2023/07/16 01:40:31;;;;;;;;;;;;;;;;;;5065471;28;20443;-60
2023/07/16 01:42:57;;;;;;;;;;;;;;;;;;5064242;28;20015;-60
2023/07/16 01:45:23;;;;;;;;;;;;;;;;;;5065976;28;20039;-61
2023/07/16 01:47:49;;;;;;;;;;;;;;;;;;5065551;28;20446;-61
2023/07/16 01:50:15;;;;;;;;;;;;;;;;;;5065325;28;19925;-61
2023/07/16 01:52:41;;;;;;;;;;;;;;;;;;5065421;28;19931;-61
2023/07/16 01:55:07;;;;;;;;;;;;;;;;;;5064790;28;19924;-61
2023/07/16 01:57:33;;;;;;;;;;;;;;;;;;5060915;28;19935;-61
2023/07/16 01:59:59;;;;;;;;;;;;;;;;;;5066421;28;19955;-61
2023/07/16 02:02:25;;;;;;;;;;;;;;;;;;5065498;28;19924;-61
2023/07/16 02:04:51;;;;;;;;;;;;;;;;;;5065007;28;19982;-63
2023/07/16 02:07:16;;;;;;;;;;;;;;;;;;5065443;28;19944;-60
2023/07/16 02:09:42;;;;;;;;;;;;;;;;;;5065225;28;20003;-60
2023/07/16 02:12:08;;;;;;;;;;;;;;;;;;5064966;28;20369;-60
2023/07/16 02:14:34;;;;;;;;;;;;;;;;;;5065023;28;20002;-60
2023/07/16 02:17:00;;;;;;;;;;;;;;;;;;5064738;28;19969;-60
2023/07/16 02:19:26;;;;;;;;;;;;;;;;;;5065354;28;19978;-60
2023/07/16 02:21:52;;;;;;;;;;;;;;;;;;5064043;28;20070;-60
2023/07/16 02:24:18;;;;;;;;;;;;;;;;;;5065755;28;19924;-61
2023/07/16 02:26:44;;;;;;;;;;;;;;;;;;5064852;28;20349;-61
2023/07/16 02:29:10;;;;;;;;;;;;;;;;;;5065336;28;20065;-60
2023/07/16 02:31:36;;;;;;;;;;;;;;;;;;5064659;28;19947;-61
2023/07/16 02:34:02;;;;;;;;;;;;;;;;;;5064934;28;19925;-61
2023/07/16 02:36:28;;;;;;;;;;;;;;;;;;5064688;28;19988;-61
2023/07/16 02:38:54;;;;;;;;;;;;;;;;;;5064856;28;20393;-61
2023/07/16 02:41:20;;;;;;;;;;;;;;;;;;5064669;28;19928;-60
2023/07/16 02:43:46;;;;;;;;;;;;;;;;;;5064597;28;19947;-61
2023/07/16 02:46:12;;;;;;;;;;;;;;;;;;5064919;28;20053;-61
2023/07/16 02:48:38;;;;;;;;;;;;;;;;;;5065302;28;20011;-61
2023/07/16 02:51:04;;;;;;;;;;;;;;;;;;5062889;28;20054;-60
2023/07/16 02:53:30;;;;;;;;;;;;;;;;;;5055770;28;20010;-61
2023/07/16 02:55:55;;;;;;;;;;;;;;;;;;5064795;28;20392;-61
2023/07/16 02:58:21;;;;;;;;;;;;;;;;;;5065035;28;20069;-61
2023/07/16 03:00:47;;;;;;;;;;;;;;;;;;5063557;28;20043;-61
2023/07/16 03:03:13;;;;;;;;;;;;;;;;;;5064525;28;20012;-61
2023/07/16 03:05:39;;;;;;;;;;;;;;;;;;5064053;28;19932;-60
2023/07/16 03:08:05;;;;;;;;;;;;;;;;;;5064194;28;19920;-60
2023/07/16 03:10:31;;;;;;;;;;;;;;;;;;5064102;28;19928;-60
2023/07/16 03:12:57;;;;;;;;;;;;;;;;;;5064386;28;19932;-60
2023/07/16 03:15:23;;;;;;;;;;;;;;;;;;5064010;28;19928;-61
2023/07/16 03:17:49;;;;;;;;;;;;;;;;;;5064289;28;19924;-60
2023/07/16 03:20:15;;;;;;;;;;;;;;;;;;5063181;28;19997;-61
2023/07/16 03:22:41;;;;;;;;;;;;;;;;;;5063783;28;19930;-61
2023/07/16 03:25:07;;;;;;;;;;;;;;;;;;5063702;28;20395;-60
2023/07/16 03:27:33;;;;;;;;;;;;;;;;;;5064146;28;20365;-61
2023/07/16 03:29:59;;;;;;;;;;;;;;;;;;5063789;28;19924;-61
2023/07/16 03:32:24;;;;;;;;;;;;;;;;;;5063479;28;19967;-61
2023/07/16 03:34:50;;;;;;;;;;;;;;;;;;5063425;28;19924;-61
2023/07/16 03:37:16;;;;;;;;;;;;;;;;;;5063967;28;19920;-61
2023/07/16 03:39:42;;;;;;;;;;;;;;;;;;5063391;28;19936;-61
2023/07/16 03:42:08;;;;;;;;;;;;;;;;;;5063523;28;20503;-61
2023/07/16 03:44:34;;;;;;;;;;;;;;;;;;5063781;28;20370;-61
2023/07/16 03:47:00;;;;;;;;;;;;;;;;;;5064136;28;20389;-60
2023/07/16 03:49:26;;;;;;;;;;;;;;;;;;5058116;28;19978;-60
2023/07/16 03:51:52;;;;;;;;;;;;;;;;;;5062867;28;19974;-60
2023/07/16 03:54:18;;;;;;;;;;;;;;;;;;5063342;28;20282;-60
2023/07/16 03:56:44;;;;;;;;;;;;;;;;;;5063460;28;20383;-60
2023/07/16 03:59:09;;;;;;;;;;;;;;;;;;5063646;28;20033;-60
2023/07/16 04:01:35;;;;;;;;;;;;;;;;;;5063023;28;19975;-60
2023/07/16 04:04:01;;;;;;;;;;;;;;;;;;5063524;28;19924;-61
2023/07/16 04:06:27;;;;;;;;;;;;;;;;;;5063215;28;19986;-61
2023/07/16 04:08:53;;;;;;;;;;;;;;;;;;5062655;28;20397;-61
2023/07/16 04:11:19;;;;;;;;;;;;;;;;;;5062769;28;19972;-60
2023/07/16 04:13:45;;;;;;;;;;;;;;;;;;5063246;28;19964;-60
2023/07/16 04:16:11;;;;;;;;;;;;;;;;;;5063588;28;19968;-60
2023/07/16 04:18:37;;;;;;;;;;;;;;;;;;5062894;28;20338;-60
2023/07/16 04:21:03;;;;;;;;;;;;;;;;;;5062067;28;20394;-60
2023/07/16 04:23:29;;;;;;;;;;;;;;;;;;5063364;28;19943;-60
2023/07/16 04:25:54;;;;;;;;;;;;;;;;;;5063097;28;20046;-60
2023/07/16 04:28:20;;;;;;;;;;;;;;;;;;5061924;28;19974;-60
2023/07/16 04:30:46;;;;;;;;;;;;;;;;;;5062916;28;19924;-60
2023/07/16 04:33:12;;;;;;;;;;;;;;;;;;5062747;28;19930;-61
2023/07/16 04:35:38;;;;;;;;;;;;;;;;;;5062147;28;19925;-61
2023/07/16 04:38:04;;;;;;;;;;;;;;;;;;5062869;28;19931;-60
2023/07/16 04:40:30;;;;;;;;;;;;;;;;;;5063197;28;19971;-60
2023/07/16 04:42:56;;;;;;;;;;;;;;;;;;5062264;28;19924;-60
2023/07/16 04:45:22;;;;;;;;;;;;;;;;;;5062943;28;19928;-61
2023/07/16 04:47:48;;;;;;;;;;;;;;;;;;5060834;28;19963;-60
2023/07/16 04:50:14;;;;;;;;;;;;;;;;;;5060848;28;19974;-60
2023/07/16 04:52:40;;;;;;;;;;;;;;;;;;5062170;28;20544;-61
2023/07/16 04:55:05;;;;;;;;;;;;;;;;;;5063448;28;20022;-60
2023/07/16 04:57:31;;;;;;;;;;;;;;;;;;5063190;28;20408;-61
2023/07/16 04:59:57;;;;;;;;;;;;;;;;;;5063186;28;19956;-61
2023/07/16 05:02:23;;;;;;;;;;;;;;;;;;5062661;28;19960;-61
2023/07/16 05:04:49;;;;;;;;;;;;;;;;;;5062113;28;19972;-61
2023/07/16 05:07:15;;;;;;;;;;;;;;;;;;5061700;28;19963;-60
2023/07/16 05:09:41;;;;;;;;;;;;;;;;;;5062777;28;20389;-61
2023/07/16 05:12:07;;;;;;;;;;;;;;;;;;5062411;28;19924;-61
2023/07/16 05:14:33;;;;;;;;;;;;;;;;;;5062692;28;20019;-61
2023/07/16 05:16:59;;;;;;;;;;;;;;;;;;5063305;28;20007;-60
2023/07/16 05:19:25;;;;;;;;;;;;;;;;;;5061799;28;19942;-61
2023/07/16 05:21:51;;;;;;;;;;;;;;;;;;5062072;28;20030;-61
2023/07/16 05:24:16;;;;;;;;;;;;;;;;;;5062745;28;19931;-60
2023/07/16 05:26:43;;;;;;;;;;;;;;;;;;5061926;28;19955;-61
2023/07/16 05:29:08;;;;;;;;;;;;;;;;;;5062446;28;19930;-60
2023/07/16 05:31:34;;;;;;;;;;;;;;;;;;5062174;28;19928;-61
2023/07/16 05:34:00;;;;;;;;;;;;;;;;;;5062941;28;19931;-61
2023/07/16 05:36:26;;;;;;;;;;;;;;;;;;5061417;28;19974;-61
2023/07/16 05:38:52;;;;;;;;;;;;;;;;;;5062360;28;19928;-60
2023/07/16 05:41:18;;;;;;;;;;;;;;;;;;5062545;28;19931;-61
2023/07/16 05:43:44;;;;;;;;;;;;;;;;;;5062342;28;20301;-61
2023/07/16 05:46:10;;;;;;;;;;;;;;;;;;5065167;28;19935;-60
2023/07/16 05:48:36;;;;;;;;;;;;;;;;;;5065935;28;19928;-61
2023/07/16 05:51:02;;;;;;;;;;;;;;;;;;5064275;28;19976;-61
2023/07/16 05:53:28;;;;;;;;;;;;;;;;;;5065090;28;19968;-61
2023/07/16 05:55:54;;;;;;;;;;;;;;;;;;5065800;28;20002;-61
2023/07/16 05:58:20;;;;;;;;;;;;;;;;;;5065815;28;20015;-61
2023/07/16 06:00:46;;;;;;;;;;;;;;;;;;5065101;28;19989;-61
2023/07/16 06:03:12;;;;;;;;;;;;;;;;;;5062842;28;20448;-61
2023/07/16 06:05:38;;;;;;;;;;;;;;;;;;5063234;28;19925;-60
2023/07/16 06:08:04;;;;;;;;;;;;;;;;;;5065308;28;19931;-60
2023/07/16 06:10:29;;;;;;;;;;;;;;;;;;5066230;28;20358;-61
2023/07/16 06:12:55;;;;;;;;;;;;;;;;;;5065634;28;20011;-61
2023/07/16 06:15:21;;;;;;;;;;;;;;;;;;5065929;28;19928;-61
2023/07/16 06:17:47;;;;;;;;;;;;;;;;;;5065649;28;19965;-61
2023/07/16 06:20:13;;;;;;;;;;;;;;;;;;5064416;28;19931;-61
2023/07/16 06:22:39;;;;;;;;;;;;;;;;;;5065316;28;19924;-61
2023/07/16 06:25:05;;;;;;;;;;;;;;;;;;5064994;28;19944;-61
2023/07/16 06:27:31;;;;;;;;;;;;;;;;;;5063348;28;19991;-61
2023/07/16 06:29:57;;;;;;;;;;;;;;;;;;5065685;28;19924;-61
2023/07/16 06:32:23;;;;;;;;;;;;;;;;;;5064480;28;20654;-61
2023/07/16 06:34:49;;;;;;;;;;;;;;;;;;5063243;28;19924;-61
2023/07/16 06:37:15;;;;;;;;;;;;;;;;;;5060831;28;20366;-61
2023/07/16 06:39:41;;;;;;;;;;;;;;;;;;5063895;28;20591;-61
2023/07/16 06:42:06;;;;;;;;;;;;;;;;;;5063427;28;19924;-61
2023/07/16 06:44:32;;;;;;;;;;;;;;;;;;5061236;28;19925;-62
2023/07/16 06:46:58;;;;;;;;;;;;;;;;;;5064365;28;19970;-61
2023/07/16 06:49:24;;;;;;;;;;;;;;;;;;5062511;28;19997;-61
2023/07/16 06:51:50;;;;;;;;;;;;;;;;;;5064936;28;20381;-61
2023/07/16 06:54:16;;;;;;;;;;;;;;;;;;5065757;28;19931;-61
2023/07/16 06:56:42;;;;;;;;;;;;;;;;;;5062955;28;19987;-61
2023/07/16 06:59:08;;;;;;;;;;;;;;;;;;5064116;28;20018;-61
2023/07/16 07:01:34;;;;;;;;;;;;;;;;;;5064167;28;20401;-61
2023/07/16 07:04:00;;;;;;;;;;;;;;;;;;5064521;28;20429;-60
2023/07/16 07:06:25;;;;;;;;;;;;;;;;;;5063843;28;19975;-61
2023/07/16 07:08:51;;;;;;;;;;;;;;;;;;5064633;28;20272;-61
2023/07/16 07:11:17;;;;;;;;;;;;;;;;;;5064151;28;20002;-61
2023/07/16 07:13:44;;;;;;;;;;;;;;;;;;5058172;28;20325;-61
2023/07/16 07:16:09;;;;;;;;;;;;;;;;;;5061153;28;20999;-61
2023/07/16 07:18:35;;;;;;;;;;;;;;;;;;5060675;28;20019;-61
2023/07/16 07:21:01;;;;;;;;;;;;;;;;;;5061067;28;19942;-61
2023/07/16 07:23:27;;;;;;;;;;;;;;;;;;5061371;28;19929;-61
2023/07/16 07:25:53;;;;;;;;;;;;;;;;;;5061585;28;19936;-61
2023/07/16 07:28:19;;;;;;;;;;;;;;;;;;5061775;28;19975;-61
2023/07/16 07:30:45;;;;;;;;;;;;;;;;;;5061567;28;19986;-64
2023/07/16 07:33:11;;;;;;;;;;;;;;;;;;5060052;28;19970;-62
2023/07/16 07:35:37;;;;;;;;;;;;;;;;;;5060519;28;20334;-62
2023/07/16 07:38:03;;;;;;;;;;;;;;;;;;5060914;28;20313;-62
2023/07/16 07:40:29;;;;;;;;;;;;;;;;;;5056923;28;19928;-62
2023/07/16 07:42:55;;;;;;;;;;;;;;;;;;5059157;28;19928;-61
2023/07/16 07:45:21;;;;;;;;;;;;;;;;;;5059619;28;20630;-61
2023/07/16 07:47:46;;;;;;;;;;;;;;;;;;5061439;28;19928;-62
2023/07/16 07:50:12;;;;;;;;;;;;;;;;;;5059607;28;20465;-62
2023/07/16 07:52:38;;;;;;;;;;;;;;;;;;5060486;28;19931;-62
2023/07/16 07:55:04;;;;;;;;;;;;;;;;;;5058660;28;19929;-62
2023/07/16 07:57:30;;;;;;;;;;;;;;;;;;5057736;28;19924;-61
2023/07/16 07:59:59;;;;;;;;;;;;;;;;;;5060326;28;20608;-61
2023/07/16 08:02:25;;;;;;;;;;;;;;;;;;5059873;28;19932;-61
2023/07/16 08:04:51;;;;;;;;;;;;;;;;;;5060430;28;20143;-61
2023/07/16 08:07:17;;;;;;;;;;;;;;;;;;5060780;28;19986;-61
2023/07/16 08:09:43;;;;;;;;;;;;;;;;;;5061127;28;20467;-61
2023/07/16 08:12:09;;;;;;;;;;;;;;;;;;5061171;28;19924;-61
2023/07/16 08:14:35;;;;;;;;;;;;;;;;;;5060515;28;19925;-61
2023/07/16 08:17:01;;;;;;;;;;;;;;;;;;5061459;28;19982;-60
2023/07/16 08:19:26;;;;;;;;;;;;;;;;;;5060892;28;19935;-61
2023/07/16 08:21:52;;;;;;;;;;;;;;;;;;5060299;28;19937;-61
2023/07/16 08:24:18;;;;;;;;;;;;;;;;;;5061187;28;19971;-60
2023/07/16 08:26:44;;;;;;;;;;;;;;;;;;5059983;28;19963;-61
2023/07/16 08:29:10;;;;;;;;;;;;;;;;;;5060989;28;19978;-61
2023/07/16 08:31:36;;;;;;;;;;;;;;;;;;5059118;28;20167;-61
2023/07/16 08:34:02;;;;;;;;;;;;;;;;;;5060276;28;19933;-62
2023/07/16 08:36:28;;;;;;;;;;;;;;;;;;5061379;28;19933;-61
2023/07/16 08:38:54;;;;;;;;;;;;;;;;;;5060832;28;19921;-61
2023/07/16 08:41:20;;;;;;;;;;;;;;;;;;5060910;28;20347;-61
2023/07/16 08:43:46;;;;;;;;;;;;;;;;;;5059907;28;19928;-61
2023/07/16 08:46:12;;;;;;;;;;;;;;;;;;5060474;28;20022;-61
2023/07/16 08:48:38;;;;;;;;;;;;;;;;;;5060589;28;20023;-61
2023/07/16 08:51:04;;;;;;;;;;;;;;;;;;5059501;28;20046;-61
2023/07/16 08:53:30;;;;;;;;;;;;;;;;;;5060730;28;19928;-61
2023/07/16 08:55:57;;;;;;;;;;;;;;;;;;5060423;28;19987;-61
2023/07/16 08:58:23;;;;;;;;;;;;;;;;;;5059474;28;19935;-61
2023/07/16 09:00:49;;;;;;;;;;;;;;;;;;5060474;28;19928;-61
2023/07/16 09:03:18;;;;;;;;;;;;;;;;;;5060090;28;19973;-60
2023/07/16 09:05:44;;;;;;;;;;;;;;;;;;5059779;28;19928;-61
2023/07/16 09:08:10;;;;;;;;;;;;;;;;;;5060170;28;19931;-61
2023/07/16 09:10:36;;;;;;;;;;;;;;;;;;5059904;28;20400;-61
2023/07/16 09:13:02;;;;;;;;;;;;;;;;;;5059025;28;20647;-61
2023/07/16 09:15:27;;;;;;;;;;;;;;;;;;5059018;28;19928;-61
2023/07/16 09:17:53;;;;;;;;;;;;;;;;;;5059834;28;19928;-61
2023/07/16 09:20:19;;;;;;;;;;;;;;;;;;5062377;28;19935;-60
2023/07/16 09:22:45;;;;;;;;;;;;;;;;;;5064356;28;19924;-60
2023/07/16 09:25:11;;;;;;;;;;;;;;;;;;5063947;28;19933;-61
2023/07/16 09:27:37;;;;;;;;;;;;;;;;;;5063744;28;19925;-60
2023/07/16 09:30:05;;;;;;;;;;;;;;;;;;5063810;28;19931;-61
2023/07/16 09:32:31;;;;;;;;;;;;;;;;;;5064764;28;19935;-61
2023/07/16 09:34:56;;;;;;;;;;;;;;;;;;5052390;28;19929;-60
2023/07/16 09:37:22;;;;;;;;;;;;;;;;;;5062915;28;20333;-60
2023/07/16 09:39:48;;;;;;;;;;;;;;;;;;5063627;28;19935;-60
2023/07/16 09:42:15;;;;;;;;;;;;;;;;;;5062373;28;19928;-60
2023/07/16 09:44:41;;;;;;;;;;;;;;;;;;5061204;28;19943;-61
2023/07/16 09:47:07;;;;;;;;;;;;;;;;;;5062530;28;19932;-61
2023/07/16 09:49:33;;;;;;;;;;;;;;;;;;5062955;28;19965;-61
2023/07/16 09:51:59;;;;;;;;;;;;;;;;;;5062921;28;19943;-61
2023/07/16 09:54:25;;;;;;;;;;;;;;;;;;5062610;28;19928;-60
2023/07/16 09:56:51;;;;;;;;;;;;;;;;;;5061071;28;20003;-61
2023/07/16 09:59:17;;;;;;;;;;;;;;;;;;5062248;28;19929;-60
2023/07/16 10:01:43;;;;;;;;;;;;;;;;;;5061634;28;19951;-60
2023/07/16 10:04:09;;;;;;;;;;;;;;;;;;5060232;28;19925;-61
2023/07/16 10:06:35;;;;;;;;;;;;;;;;;;5062828;28;19936;-61
2023/07/16 10:09:01;;;;;;;;;;;;;;;;;;5060924;28;19939;-60
2023/07/16 10:11:27;;;;;;;;;;;;;;;;;;5063071;28;19947;-60
2023/07/16 10:13:53;;;;;;;;;;;;;;;;;;5061865;28;19929;-60
2023/07/16 10:16:19;;;;;;;;;;;;;;;;;;5060710;28;19928;-61
2023/07/16 10:18:45;;;;;;;;;;;;;;;;;;5061823;28;19928;-59
2023/07/16 10:21:11;;;;;;;;;;;;;;;;;;5061575;28;20604;-61
2023/07/16 10:23:38;;;;;;;;;;;;;;;;;;5062017;28;20155;-61
2023/07/16 10:26:06;;;;;;;;;;;;;;;;;;5062413;28;19928;-60
2023/07/16 10:28:32;;;;;;;;;;;;;;;;;;5061475;28;20613;-61
2023/07/16 10:30:58;;;;;;;;;;;;;;;;;;5060750;28;19925;-61
2023/07/16 10:33:24;;;;;;;;;;;;;;;;;;5062966;28;19928;-61
2023/07/16 10:35:50;;;;;;;;;;;;;;;;;;5054850;28;20015;-60
2023/07/16 10:38:16;;;;;;;;;;;;;;;;;;5061684;28;19932;-61
2023/07/16 10:40:42;;;;;;;;;;;;;;;;;;5061353;28;19932;-60
2023/07/16 10:43:08;;;;;;;;;;;;;;;;;;5062357;28;19935;-61
2023/07/16 10:45:34;;;;;;;;;;;;;;;;;;5060868;28;19928;-62
2023/07/16 10:48:00;;;;;;;;;;;;;;;;;;5060496;28;19929;-62
2023/07/16 10:50:26;;;;;;;;;;;;;;;;;;5060813;28;19974;-61
2023/07/16 10:52:52;;;;;;;;;;;;;;;;;;5061435;28;20217;-62
2023/07/16 10:55:18;;;;;;;;;;;;;;;;;;5061550;28;19929;-62
2023/07/16 10:57:44;;;;;;;;;;;;;;;;;;5062098;28;19924;-62
2023/07/16 11:00:10;;;;;;;;;;;;;;;;;;5063657;28;19925;-61
2023/07/16 11:02:36;;;;;;;;;;;;;;;;;;5064048;28;19924;-62
2023/07/16 11:05:02;;;;;;;;;;;;;;;;;;5062671;28;19932;-62
2023/07/16 11:07:28;;;;;;;;;;;;;;;;;;5064742;28;19925;-62
2023/07/16 11:09:54;;;;;;;;;;;;;;;;;;5064172;28;20011;-62
2023/07/16 11:12:20;;;;;;;;;;;;;;;;;;5062373;28;20271;-62
2023/07/16 11:14:46;;;;;;;;;;;;;;;;;;5063182;28;19989;-62
2023/07/16 11:17:12;;;;;;;;;;;;;;;;;;5063230;28;19924;-62
2023/07/16 11:19:38;;;;;;;;;;;;;;;;;;5063254;28;19925;-62
2023/07/16 11:22:04;;;;;;;;;;;;;;;;;;5061610;28;20021;-62
2023/07/16 11:24:30;;;;;;;;;;;;;;;;;;5062186;28;19932;-62
2023/07/16 11:26:57;;;;;;;;;;;;;;;;;;5060230;28;20018;-62
2023/07/16 11:29:22;;;;;;;;;;;;;;;;;;5061227;28;19924;-62
2023/07/16 11:31:48;;;;;;;;;;;;;;;;;;5060013;28;20054;-62
2023/07/16 11:34:14;;;;;;;;;;;;;;;;;;5060961;28;19981;-62
2023/07/16 11:36:40;;;;;;;;;;;;;;;;;;5059684;28;19925;-61
2023/07/16 11:39:06;;;;;;;;;;;;;;;;;;5061488;28;19997;-62
2023/07/16 11:41:32;;;;;;;;;;;;;;;;;;5060457;28;20438;-62
2023/07/16 11:43:58;;;;;;;;;;;;;;;;;;5061591;28;19933;-61
2023/07/16 11:46:24;;;;;;;;;;;;;;;;;;5057455;28;19929;-62
2023/07/16 11:48:50;;;;;;;;;;;;;;;;;;5056532;28;19925;-61
2023/07/16 11:51:16;;;;;;;;;;;;;;;;;;5069420;28;19928;-61
2023/07/16 11:53:42;;;;;;;;;;;;;;;;;;5068733;28;20856;-62
2023/07/16 11:56:09;;;;;;;;;;;;;;;;;;5062672;28;20356;-61
2023/07/16 11:58:35;;;;;;;;;;;;;;;;;;5056233;28;19928;-61
2023/07/16 12:01:01;;;;;;;;;;;;;;;;;;5061013;28;19955;-61
2023/07/16 12:03:27;;;;;;;;;;;;;;;;;;5057973;28;19928;-61
2023/07/16 12:05:52;;;;;;;;;;;;;;;;;;5060213;28;19929;-62
2023/07/16 12:08:18;;;;;;;;;;;;;;;;;;5060696;28;19943;-61
2023/07/16 12:10:44;;;;;;;;;;;;;;;;;;5060793;28;19928;-60
2023/07/16 12:13:10;;;;;;;;;;;;;;;;;;5057788;28;19925;-60
2023/07/16 12:15:36;;;;;;;;;;;;;;;;;;5057548;28;19931;-60
2023/07/16 12:18:03;;;;;;;;;;;;;;;;;;5063288;28;19924;-60
2023/07/16 12:20:28;;;;;;;;;;;;;;;;;;5062855;28;19925;-60
2023/07/16 12:22:54;;;;;;;;;;;;;;;;;;5062746;28;20081;-60
2023/07/16 12:25:20;;;;;;;;;;;;;;;;;;5062094;28;20375;-60
2023/07/16 12:27:46;;;;;;;;;;;;;;;;;;5062959;28;20467;-60
2023/07/16 12:30:12;;;;;;;;;;;;;;;;;;5062842;28;19928;-61
2023/07/16 12:32:38;;;;;;;;;;;;;;;;;;5062930;28;19924;-60
2023/07/16 12:35:04;;;;;;;;;;;;;;;;;;5062665;28;19924;-61
2023/07/16 12:37:30;;;;;;;;;;;;;;;;;;5063498;28;19940;-60
2023/07/16 12:39:56;;;;;;;;;;;;;;;;;;5062159;28;19925;-60
2023/07/16 12:42:22;;;;;;;;;;;;;;;;;;5060889;28;19933;-59
2023/07/16 12:44:49;;;;;;;;;;;;;;;;;;5058965;28;19940;-59
2023/07/16 12:47:15;;;;;;;;;;;;;;;;;;5061725;28;19975;-60
2023/07/16 12:49:41;;;;;;;;;;;;;;;;;;5060744;28;20011;-59
2023/07/16 12:52:07;;;;;;;;;;;;;;;;;;5061003;28;20482;-59
2023/07/16 12:54:33;;;;;;;;;;;;;;;;;;5063405;28;19928;-60
2023/07/16 12:56:59;;;;;;;;;;;;;;;;;;5067120;28;19928;-59
2023/07/16 12:59:25;;;;;;;;;;;;;;;;;;5065342;28;19985;-60
2023/07/16 13:01:51;;;;;;;;;;;;;;;;;;5064114;28;19985;-59
2023/07/16 13:04:17;;;;;;;;;;;;;;;;;;5065590;28;20476;-60
2023/07/16 13:06:45;;;;;;;;;;;;;;;;;;5065277;28;19928;-60
2023/07/16 13:09:11;;;;;;;;;;;;;;;;;;5065291;28;20093;-59
2023/07/16 13:11:37;;;;;;;;;;;;;;;;;;5065016;28;19924;-60
2023/07/16 13:14:03;;;;;;;;;;;;;;;;;;5065559;28;19978;-61
2023/07/16 13:16:29;;;;;;;;;;;;;;;;;;5066406;28;19964;-60
2023/07/16 13:18:55;;;;;;;;;;;;;;;;;;5064531;28;20003;-60
2023/07/16 13:21:20;;;;;;;;;;;;;;;;;;5065426;28;19924;-60
2023/07/16 13:23:46;;;;;;;;;;;;;;;;;;5066160;28;19924;-60
2023/07/16 13:26:12;;;;;;;;;;;;;;;;;;5065499;28;19977;-60
2023/07/16 13:28:38;;;;;;;;;;;;;;;;;;5063614;28;20290;-60
2023/07/16 13:31:04;;;;;;;;;;;;;;;;;;5066116;28;20366;-60
2023/07/16 13:33:30;;;;;;;;;;;;;;;;;;5064415;28;19924;-59
2023/07/16 13:35:57;;;;;;;;;;;;;;;;;;5066445;28;19970;-60
2023/07/16 13:38:22;;;;;;;;;;;;;;;;;;5064926;28;19929;-59
2023/07/16 13:40:48;;;;;;;;;;;;;;;;;;5066042;28;19925;-60
2023/07/16 13:43:14;;;;;;;;;;;;;;;;;;5065204;28;19924;-60
2023/07/16 13:45:40;;;;;;;;;;;;;;;;;;5065407;28;20370;-61
2023/07/16 13:48:06;;;;;;;;;;;;;;;;;;5064164;28;20313;-61
2023/07/16 13:50:32;;;;;;;;;;;;;;;;;;5063584;28;20309;-61
2023/07/16 13:53:01;;;;;;;;;;;;;;;;;;5061115;28;19925;-60
2023/07/16 13:55:27;;;;;;;;;;;;;;;;;;5059231;28;19921;-59
2023/07/16 13:57:53;;;;;;;;;;;;;;;;;;5062694;28;19974;-60
2023/07/16 14:00:19;;;;;;;;;;;;;;;;;;5065036;28;19924;-60
2023/07/16 14:02:45;;;;;;;;;;;;;;;;;;5064208;28;19979;-60
2023/07/16 14:05:11;;;;;;;;;;;;;;;;;;5064188;28;19987;-60
2023/07/16 14:07:37;;;;;;;;;;;;;;;;;;5064989;28;19972;-60
2023/07/16 14:10:03;;;;;;;;;;;;;;;;;;5063508;28;20087;-60
2023/07/16 14:12:29;;;;;;;;;;;;;;;;;;5065094;28;20546;-60
2023/07/16 14:14:54;;;;;;;;;;;;;;;;;;5064684;28;20711;-59
2023/07/16 14:17:20;;;;;;;;;;;;;;;;;;5065251;28;20010;-60
2023/07/16 14:19:46;;;;;;;;;;;;;;;;;;5063044;28;20015;-60
2023/07/16 14:22:14;;;;;;;;;;;;;;;;;;5064777;28;19972;-60
2023/07/16 14:24:40;;;;;;;;;;;;;;;;;;5063844;28;19985;-60
2023/07/16 14:27:06;;;;;;;;;;;;;;;;;;5063558;28;19925;-60
2023/07/16 14:29:32;;;;;;;;;;;;;;;;;;5063688;28;20055;-60
2023/07/16 14:31:58;;;;;;;;;;;;;;;;;;5064526;28;20003;-60
2023/07/16 14:34:24;;;;;;;;;;;;;;;;;;5064324;28;20015;-60
2023/07/16 14:36:50;;;;;;;;;;;;;;;;;;5063899;28;20007;-59
2023/07/16 14:39:16;;;;;;;;;;;;;;;;;;5065037;28;20367;-60
2023/07/16 14:41:42;;;;;;;;;;;;;;;;;;5064379;28;20420;-60
2023/07/16 14:44:08;;;;;;;;;;;;;;;;;;5062304;28;19933;-60
2023/07/16 14:46:34;;;;;;;;;;;;;;;;;;5065221;28;19928;-60
2023/07/16 14:49:00;;;;;;;;;;;;;;;;;;5062080;28;19924;-60
2023/07/16 14:51:26;;;;;;;;;;;;;;;;;;5064470;28;19931;-60
2023/07/16 14:53:55;;;;;;;;;;;;;;;;;;5063780;28;20063;-61
2023/07/16 14:56:21;;;;;;;;;;;;;;;;;;5064280;28;19924;-60
2023/07/16 14:58:47;;;;;;;;;;;;;;;;;;5063355;28;19932;-60
2023/07/16 15:01:13;;;;;;;;;;;;;;;;;;5064398;28;19925;-60
2023/07/16 15:03:40;;;;;;;;;;;;;;;;;;5063230;28;19925;-61
2023/07/16 15:06:06;;;;;;;;;;;;;;;;;;5064343;28;19935;-60
2023/07/16 15:08:32;;;;;;;;;;;;;;;;;;5063802;28;19924;-61
2023/07/16 15:10:58;;;;;;;;;;;;;;;;;;5064308;28;19924;-60
2023/07/16 15:13:28;;;;;;;;;;;;;;;;;;5063492;28;19925;-60
2023/07/16 15:15:54;;;;;;;;;;;;;;;;;;5063168;28;19969;-60
2023/07/16 15:18:20;;;;;;;;;;;;;;;;;;5062554;28;20010;-61
2023/07/16 15:20:46;;;;;;;;;;;;;;;;;;5063650;28;20015;-61
2023/07/16 15:23:12;;;;;;;;;;;;;;;;;;5062841;28;20755;-60
2023/07/16 15:25:38;;;;;;;;;;;;;;;;;;5062870;28;19924;-60
2023/07/16 15:28:03;;;;;;;;;;;;;;;;;;5062532;28;19925;-61
2023/07/16 15:30:29;;;;;;;;;;;;;;;;;;5063822;28;20029;-60
2023/07/16 15:32:55;;;;;;;;;;;;;;;;;;5060644;28;19959;-60
2023/07/16 15:35:21;;;;;;;;;;;;;;;;;;5063367;28;20068;-60
2023/07/16 15:37:56;;;;;;;;;;;;;;;;;;5128814;27;20422;-61
2023/07/16 15:40:22;;;;;;;;;;;;;;;;;;5122387;27;20431;-61
2023/07/16 15:42:50;;;;;;;;;;;;;;;;;;5120108;27;19920;-61
2023/07/16 15:45:16;;;;;;;;;;;;;;;;;;5128097;27;19931;-61
2023/07/16 15:47:42;;;;;;;;;;;;;;;;;;5117559;27;19924;-61
2023/07/16 15:50:08;;;;;;;;;;;;;;;;;;5120958;28;19930;-61
2023/07/16 15:52:34;;;;;;;;;;;;;;;;;;5124239;27;19959;-61
2023/07/16 15:55:00;;;;;;;;;;;;;;;;;;5121275;28;19967;-61
2023/07/16 15:57:26;;;;;;;;;;;;;;;;;;5119309;27;20372;-60
2023/07/16 15:59:52;;;;;;;;;;;;;;;;;;5121213;27;19953;-61
2023/07/16 16:02:18;;;;;;;;;;;;;;;;;;5119665;28;19928;-61
2023/07/16 16:04:44;;;;;;;;;;;;;;;;;;5120207;27;19924;-60
2023/07/16 16:07:10;;;;;;;;;;;;;;;;;;5119734;28;20058;-61
2023/07/16 16:09:36;;;;;;;;;;;;;;;;;;5119430;28;19931;-60
2023/07/16 16:12:03;;;;;;;;;;;;;;;;;;5116904;28;19927;-61
2023/07/16 16:14:29;;;;;;;;;;;;;;;;;;5119999;27;20366;-61
2023/07/16 16:16:55;;;;;;;;;;;;;;;;;;5119070;28;19924;-60
2023/07/16 16:19:21;;;;;;;;;;;;;;;;;;5129639;27;20031;-60
2023/07/16 16:21:47;;;;;;;;;;;;;;;;;;5130046;27;19986;-60
2023/07/16 16:24:12;;;;;;;;;;;;;;;;;;5120274;28;19961;-61
2023/07/16 16:26:38;;;;;;;;;;;;;;;;;;5118332;28;19923;-62
2023/07/16 16:29:04;;;;;;;;;;;;;;;;;;5117844;27;20376;-62
2023/07/16 16:31:30;;;;;;;;;;;;;;;;;;5116058;27;19939;-62
2023/07/16 16:33:56;;;;;;;;;;;;;;;;;;5119312;28;19927;-62
2023/07/16 16:36:22;;;;;;;;;;;;;;;;;;5120011;27;19999;-62
2023/07/16 16:38:48;;;;;;;;;;;;;;;;;;5120775;28;20444;-62